Time;durP1;ratioP1;P1;durP2;ratioP2;P2;SDS_P1;SDS_P2;PMS_P1;PMS_P2;Temp;Humidity;BMP_temperature;BMP_pressure;BME280_temperature;BME280_humidity;BME280_pressure;Samples;Min_cycle;Max_cycle;Signal;HPM_P1;HPM_P2
2022/07/28 00:01:23;;;;;;;;;;;;;;;17.55;65.92;100267.13;1440625;90;21734;-79
2022/07/28 00:03:50;;;;;;;;;;;;;;;17.56;65.94;100264.27;1439472;89;20294;-79
2022/07/28 00:06:16;;;;;;;;;;;;;;;17.57;66.13;100265.91;1441636;90;20391;-79
2022/07/28 00:08:42;;;;;;;;;;;;;;;17.59;65.98;100259.86;1442609;90;20391;-79
2022/07/28 00:11:08;;;;;;;;;;;;;;;17.58;65.50;100252.88;1440308;90;20345;-79
2022/07/28 00:13:34;;;;;;;;;;;;;;;17.59;65.99;100259.86;1438586;90;20329;-79
2022/07/28 00:16:00;;;;;;;;;;;;;;;17.59;66.05;100240.31;1438620;89;20326;-79
2022/07/28 00:18:26;;;;;;;;;;;;;;;17.57;65.38;100235.14;1443396;89;20308;-79
2022/07/28 00:20:52;;;;;;;;;;;;;;;17.56;65.76;100240.19;1444273;90;20369;-79
2022/07/28 00:23:18;;;;;;;;;;;;;;;17.52;65.44;100242.96;1439041;90;20286;-79
2022/07/28 00:25:44;;;;;;;;;;;;;;;17.51;66.43;100247.98;1440544;90;20294;-79
2022/07/28 00:28:10;;;;;;;;;;;;;;;17.49;65.41;100248.71;1436724;90;20414;-79
2022/07/28 00:30:36;;;;;;;;;;;;;;;17.48;66.03;100248.38;1440832;89;20364;-79
2022/07/28 00:33:02;;;;;;;;;;;;;;;17.46;66.15;100250.41;1445262;90;20285;-78
2022/07/28 00:35:27;;;;;;;;;;;;;;;17.44;67.01;100247.64;1435517;90;20300;-79
2022/07/28 00:37:53;;;;;;;;;;;;;;;17.43;66.65;100248.13;1436637;90;20346;-78
2022/07/28 00:40:20;;;;;;;;;;;;;;;17.40;68.02;100241.84;1434002;89;20476;-78
2022/07/28 00:42:46;;;;;;;;;;;;;;;17.37;67.18;100242.23;1436205;90;20293;-78
2022/07/28 00:45:12;;;;;;;;;;;;;;;17.34;67.73;100237.28;1438038;89;20450;-79
2022/07/28 00:47:38;;;;;;;;;;;;;;;17.29;67.77;100235.21;1436779;90;20280;-78
2022/07/28 00:50:05;;;;;;;;;;;;;;;17.26;67.64;100237.42;1440800;89;20379;-78
2022/07/28 00:52:32;;;;;;;;;;;;;;;17.24;68.59;100235.48;1444303;89;20315;-79
2022/07/28 00:54:58;;;;;;;;;;;;;;;17.22;68.38;100229.49;1442116;90;20663;-79
2022/07/28 00:57:29;;;;;;;;;;;;;;;17.19;68.51;100225.88;1441875;90;20329;-79
2022/07/28 00:59:55;;;;;;;;;;;;;;;17.17;68.55;100226.57;1446792;89;20362;-78
2022/07/28 01:02:21;;;;;;;;;;;;;;;17.12;68.32;100229.85;1438450;90;20976;-78
2022/07/28 01:04:48;;;;;;;;;;;;;;;17.09;68.79;100233.73;1441050;89;20310;-78
2022/07/28 01:07:21;;;;;;;;;;;;;;;17.08;68.96;100232.58;1444980;89;20390;-77
2022/07/28 01:09:51;;;;;;;;;;;;;;;17.09;70.00;100236.89;1441897;90;20419;-77
2022/07/28 01:12:41;;;;;;;;;;;;;;;17.09;69.88;100236.41;1444063;90;20397;-77
2022/07/28 01:15:26;;;;;;;;;;;;;;;17.08;70.50;100232.06;1436150;90;20427;-78
2022/07/28 01:18:08;;;;;;;;;;;;;;;17.09;70.49;100233.73;1441086;90;20402;-78
2022/07/28 01:20:56;;;;;;;;;;;;;;;17.10;69.98;100230.55;1440549;90;20435;-78
2022/07/28 01:23:35;;;;;;;;;;;;;;;17.10;69.05;100230.03;1433240;90;20301;-77
2022/07/28 01:26:31;;;;;;;;;;;;;;;17.09;68.97;100233.73;1437336;89;20286;-77
2022/07/28 01:29:04;;;;;;;;;;;;;;;17.08;69.33;100237.41;1441048;90;20875;-78
2022/07/28 01:31:34;;;;;;;;;;;;;;;17.06;69.56;100234.61;1440720;89;20874;-79
2022/07/28 01:34:02;;;;;;;;;;;;;;;17.03;69.86;100233.67;1434769;90;20653;-79
2022/07/28 01:36:34;;;;;;;;;;;;;;;17.01;70.24;100236.55;1438195;90;21596;-79
2022/07/28 01:39:01;;;;;;;;;;;;;;;17.04;69.51;100232.66;1442467;89;20880;-79
2022/07/28 01:41:30;;;;;;;;;;;;;;;17.04;69.68;100242.02;1439396;90;20308;-79
2022/07/28 01:43:58;;;;;;;;;;;;;;;17.06;69.34;100242.15;1433040;90;20362;-79
2022/07/28 01:46:25;;;;;;;;;;;;;;;17.06;70.05;100248.84;1441966;89;20659;-79
2022/07/28 01:48:52;;;;;;;;;;;;;;;17.08;68.96;100250.78;1435355;89;20420;-79
2022/07/28 01:51:20;;;;;;;;;;;;;;;17.09;69.26;100255.61;1434538;90;20837;-78
2022/07/28 01:53:46;;;;;;;;;;;;;;;17.09;70.10;100252.94;1442308;90;20323;-78
2022/07/28 01:56:14;;;;;;;;;;;;;;;17.09;70.35;100255.13;1435379;89;20398;-78
2022/07/28 01:58:41;;;;;;;;;;;;;;;17.11;70.27;100253.06;1434610;89;20466;-78
2022/07/28 02:01:08;;;;;;;;;;;;;;;17.12;69.36;100256.08;1437330;90;20568;-79
2022/07/28 02:03:36;;;;;;;;;;;;;;;17.16;69.43;100259.17;1420362;90;20404;-79
2022/07/28 02:06:03;;;;;;;;;;;;;;;17.19;69.34;100256.63;1439963;89;20294;-79
2022/07/28 02:08:34;;;;;;;;;;;;;;;17.20;69.88;100255.59;1461660;90;20394;-79
2022/07/28 02:13:47;;;;;;;;;;;;;;;17.24;70.06;100260.38;1436482;89;21189;-78
2022/07/28 02:16:14;;;;;;;;;;;;;;;17.25;69.89;100259.86;1440577;89;20444;-78
2022/07/28 02:18:41;;;;;;;;;;;;;;;17.29;70.09;100262.44;1436316;89;20323;-79
2022/07/28 02:21:07;;;;;;;;;;;;;;;17.34;69.37;100260.02;1438695;89;20405;-77
2022/07/28 02:23:36;;;;;;;;;;;;;;;17.40;69.42;100256.55;1440814;89;20403;-78
2022/07/28 02:26:04;;;;;;;;;;;;;;;17.47;69.15;100260.63;1439368;89;20547;-78
2022/07/28 02:28:34;;;;;;;;;;;;;;;17.53;69.22;100258.50;1437438;90;20918;-78
2022/07/28 02:31:03;;;;;;;;;;;;;;;17.60;69.10;100262.84;1435922;90;20442;-77
2022/07/28 02:33:32;;;;;;;;;;;;;;;17.69;68.51;100258.67;1437789;89;20294;-77
2022/07/28 02:36:01;;;;;;;;;;;;;;;17.76;68.33;100260.88;1437038;89;20332;-77
2022/07/28 02:38:33;;;;;;;;;;;;;;;17.84;67.86;100264.77;1436214;89;20474;-77
2022/07/28 02:41:25;;;;;;;;;;;;;;;17.93;67.57;100262.23;1438677;89;20388;-77
2022/07/28 02:44:10;;;;;;;;;;;;;;;18.00;67.21;100265.74;1432652;90;20314;-78
2022/07/28 02:46:44;;;;;;;;;;;;;;;18.03;67.28;100262.66;1437370;89;21093;-79
2022/07/28 02:49:15;;;;;;;;;;;;;;;18.07;67.62;100268.47;1438864;89;20301;-79
2022/07/28 02:51:42;;;;;;;;;;;;;;;18.12;67.48;100275.88;1435765;89;21697;-78
2022/07/28 02:54:10;;;;;;;;;;;;;;;18.14;66.80;100274.66;1507047;89;20912;-78
2022/07/28 02:56:40;;;;;;;;;;;;;;;18.17;66.23;100281.47;1516464;89;20280;-78
2022/07/28 02:59:07;;;;;;;;;;;;;;;18.20;66.08;100287.77;1462826;89;20273;-79
2022/07/28 03:01:33;;;;;;;;;;;;;;;18.20;66.25;100287.77;1403631;91;20280;-78
2022/07/28 03:03:59;;;;;;;;;;;;;;;18.18;67.11;100291.14;1496312;91;20427;-78
2022/07/28 03:06:26;;;;;;;;;;;;;;;18.13;66.38;100291.77;1514643;91;20302;-78
2022/07/28 03:08:52;;;;;;;;;;;;;;;18.12;66.60;100297.30;1516177;91;20257;-78
2022/07/28 03:11:18;;;;;;;;;;;;;;;18.09;67.81;100293.69;1446759;91;20339;-79
2022/07/28 03:13:44;;;;;;;;;;;;;;;18.08;67.59;100294.21;1496422;91;20250;-78
2022/07/28 03:16:10;;;;;;;;;;;;;;;18.11;67.70;100302.36;1513733;91;20251;-79
2022/07/28 03:18:38;;;;;;;;;;;;;;;18.12;67.54;100308.02;1514081;91;20743;-78
2022/07/28 03:21:05;;;;;;;;;;;;;;;18.10;67.29;100315.45;1514609;91;20233;-78
2022/07/28 03:23:37;;;;;;;;;;;;;;;18.09;67.75;100313.78;1516248;89;20353;-78
2022/07/28 03:26:07;;;;;;;;;;;;;;;18.08;68.04;100314.30;1386713;91;20323;-78
2022/07/28 03:28:33;;;;;;;;;;;;;;;18.10;67.94;100318.13;1426555;90;20939;-78
2022/07/28 03:31:03;;;;;;;;;;;;;;;18.12;67.48;100318.22;1432083;89;20368;-78
2022/07/28 03:33:29;;;;;;;;;;;;;;;18.14;67.33;100314.83;1434105;89;20420;-78
2022/07/28 03:35:58;;;;;;;;;;;;;;;18.13;67.41;100311.03;1433391;89;20325;-78
2022/07/28 03:38:27;;;;;;;;;;;;;;;18.11;68.31;100311.73;1412318;91;20377;-78
2022/07/28 03:40:55;;;;;;;;;;;;;;;18.10;68.54;100308.23;1402488;91;20332;-78
2022/07/28 03:43:23;;;;;;;;;;;;;;;18.09;69.95;100304.41;1431039;91;20287;-79
2022/07/28 03:45:49;;;;;;;;;;;;;;;18.09;69.88;100299.87;1434025;89;20323;-79
2022/07/28 03:48:16;;;;;;;;;;;;;;;18.11;69.89;100291.65;1428965;91;20887;-79
2022/07/28 03:50:42;;;;;;;;;;;;;;;18.14;69.02;100292.59;1427886;89;20412;-79
2022/07/28 03:53:12;;;;;;;;;;;;;;;18.16;69.15;100302.59;1424087;91;20392;-79
2022/07/28 03:55:38;;;;;;;;;;;;;;;18.21;68.84;100301.45;1419801;91;20410;-79
2022/07/28 03:58:04;;;;;;;;;;;;;;;18.26;69.04;100296.33;1425091;91;20299;-78
2022/07/28 04:00:30;;;;;;;;;;;;;;;18.30;68.64;100293.58;1415634;91;20595;-79
2022/07/28 04:02:56;;;;;;;;;;;;;;;18.36;68.45;100296.79;1420424;91;20314;-79
2022/07/28 04:05:22;;;;;;;;;;;;;;;18.42;68.20;100295.98;1421254;92;20533;-78
2022/07/28 04:07:48;;;;;;;;;;;;;;;18.52;68.08;100298.26;1419791;92;20454;-79
2022/07/28 04:10:16;;;;;;;;;;;;;;;18.60;67.84;100299.41;1417333;92;20613;-79
2022/07/28 04:12:52;;;;;;;;;;;;;;;18.68;67.66;100301.91;1413346;92;20856;-79
2022/07/28 04:15:20;;;;;;;;;;;;;;;18.80;67.52;100300.00;1421760;91;20484;-79
2022/07/28 04:17:48;;;;;;;;;;;;;;;18.87;67.24;100298.98;1413321;91;20591;-79
2022/07/28 04:20:15;;;;;;;;;;;;;;;18.94;66.85;100301.14;1416652;91;20396;-79
2022/07/28 04:22:42;;;;;;;;;;;;;;;18.95;67.19;100299.28;1419077;92;20306;-79
2022/07/28 04:25:09;;;;;;;;;;;;;;;19.03;66.94;100307.65;1419027;91;20315;-79
2022/07/28 04:27:36;;;;;;;;;;;;;;;19.08;68.13;100310.55;1415867;91;20428;-79
2022/07/28 04:30:07;;;;;;;;;;;;;;;19.11;68.07;100302.08;1419205;90;20276;-78
2022/07/28 04:32:33;;;;;;;;;;;;;;;19.14;67.83;100309.72;1414093;92;20314;-78
2022/07/28 04:34:59;;;;;;;;;;;;;;;19.16;67.09;100307.14;1416849;91;20993;-79
2022/07/28 04:37:26;;;;;;;;;;;;;;;19.21;67.02;100310.52;1419010;92;21065;-78
2022/07/28 04:39:53;;;;;;;;;;;;;;;19.26;68.07;100309.92;1421765;92;20964;-78
2022/07/28 04:42:19;;;;;;;;;;;;;;;19.29;67.20;100302.27;1414316;92;20304;-78
2022/07/28 04:44:45;;;;;;;;;;;;;;;19.33;66.73;100304.86;1418950;92;20300;-78
2022/07/28 04:47:16;;;;;;;;;;;;;;;19.40;68.01;100306.19;1422906;92;20351;-78
2022/07/28 04:49:40;;;;;;;;;;;;;;;19.45;67.37;100309.58;1421840;91;20333;-78
2022/07/28 04:52:07;;;;;;;;;;;;;;;19.50;67.53;100303.06;1404742;91;21795;-78
2022/07/28 04:54:34;;;;;;;;;;;;;;;19.57;66.51;100307.92;1448560;91;20283;-78
2022/07/28 04:57:00;;;;;;;;;;;;;;;19.63;67.12;100316.48;1494836;91;20870;-78
2022/07/28 04:59:27;;;;;;;;;;;;;;;19.69;67.16;100318.35;1503610;91;20248;-78
2022/07/28 05:01:55;;;;;;;;;;;;;;;19.74;67.04;100325.27;1459121;91;20350;-79
2022/07/28 05:04:21;;;;;;;;;;;;;;;19.84;65.90;100331.00;1423971;91;20482;-78
2022/07/28 05:06:47;;;;;;;;;;;;;;;19.90;66.31;100331.20;1413500;91;20626;-79
2022/07/28 05:09:13;;;;;;;;;;;;;;;20.01;65.96;100330.03;1415274;91;20402;-78
2022/07/28 05:11:38;;;;;;;;;;;;;;;20.10;65.63;100327.94;1426786;91;20364;-78
2022/07/28 05:14:04;;;;;;;;;;;;;;;20.22;65.58;100327.56;1420072;91;20601;-79
2022/07/28 05:16:31;;;;;;;;;;;;;;;20.35;65.32;100323.19;1422987;91;20380;-80
2022/07/28 05:18:56;;;;;;;;;;;;;;;20.49;65.04;100326.94;1425427;91;20328;-79
2022/07/28 05:21:23;;;;;;;;;;;;;;;20.64;64.84;100323.98;1418050;91;20373;-78
2022/07/28 05:23:50;;;;;;;;;;;;;;;20.78;64.04;100327.95;1430324;91;20416;-79
2022/07/28 05:26:17;;;;;;;;;;;;;;;20.95;63.66;100327.72;1434040;91;20408;-78
2022/07/28 05:28:43;;;;;;;;;;;;;;;21.05;62.47;100336.11;1439011;91;20312;-78
2022/07/28 05:31:09;;;;;;;;;;;;;;;21.13;62.27;100333.16;1435374;90;20547;-81
2022/07/28 05:33:36;;;;;;;;;;;;;;;21.21;62.05;100337.98;1435798;91;20321;-82
2022/07/28 05:36:03;;;;;;;;;;;;;;;21.26;61.98;100342.16;1427451;91;20367;-79
2022/07/28 05:38:30;;;;;;;;;;;;;;;21.26;61.73;100339.47;1428884;91;20327;-78
2022/07/28 05:40:57;;;;;;;;;;;;;;;21.34;61.63;100340.02;1425138;91;20580;-79
2022/07/28 05:43:23;;;;;;;;;;;;;;;21.43;61.38;100342.47;1430737;91;20661;-79
2022/07/28 05:45:49;;;;;;;;;;;;;;;21.48;61.35;100344.80;1428018;91;20356;-79
2022/07/28 05:48:19;;;;;;;;;;;;;;;21.55;61.01;100349.61;1429306;91;20336;-79
2022/07/28 05:50:45;;;;;;;;;;;;;;;21.60;60.54;100352.44;1427820;91;20427;-79
2022/07/28 05:53:11;;;;;;;;;;;;;;;21.63;60.31;100353.34;1430648;91;20284;-79
2022/07/28 05:55:37;;;;;;;;;;;;;;;21.67;60.58;100363.70;1423789;91;20497;-79
2022/07/28 05:58:03;;;;;;;;;;;;;;;21.67;60.50;100361.83;1422967;91;20318;-79
2022/07/28 06:00:32;;;;;;;;;;;;;;;21.65;60.11;100362.55;1422006;91;20975;-79
2022/07/28 06:03:00;;;;;;;;;;;;;;;21.72;60.99;100362.48;1428421;91;20350;-78
2022/07/28 06:05:25;;;;;;;;;;;;;;;21.79;60.63;100367.30;1430829;91;20403;-78
2022/07/28 06:07:51;;;;;;;;;;;;;;;21.83;60.27;100368.48;1426619;91;21121;-78
2022/07/28 06:10:20;;;;;;;;;;;;;;;21.88;60.09;100367.30;1425500;91;20433;-78
2022/07/28 06:12:49;;;;;;;;;;;;;;;21.96;59.79;100371.05;1426688;91;20328;-83
2022/07/28 06:15:16;;;;;;;;;;;;;;;21.98;59.16;100362.73;1426659;91;20424;-83
2022/07/28 06:17:42;;;;;;;;;;;;;;;22.06;59.56;100366.48;1428047;91;20503;-83
2022/07/28 06:20:11;;;;;;;;;;;;;;;22.12;59.23;100367.45;1421457;91;20425;-82
2022/07/28 06:22:44;;;;;;;;;;;;;;;22.14;58.11;100374.27;1426858;91;20291;-83
2022/07/28 06:25:18;;;;;;;;;;;;;;;22.13;58.12;100377.20;1425569;91;20939;-83
2022/07/28 06:27:47;;;;;;;;;;;;;;;22.23;58.12;100389.64;1423720;91;20388;-84
2022/07/28 06:30:13;;;;;;;;;;;;;;;22.31;57.71;100388.00;1407443;91;20553;-91
2022/07/28 06:32:39;;;;;;;;;;;;;;;22.42;58.32;100381.84;1425706;91;21033;-88
2022/07/28 06:35:06;;;;;;;;;;;;;;;22.53;57.48;100379.73;1426984;91;21712;-89
2022/07/28 06:37:33;;;;;;;;;;;;;;;22.60;56.78;100380.98;1429170;91;20294;-91
2022/07/28 06:40:00;;;;;;;;;;;;;;;22.81;57.30;100383.70;1425612;89;20417;-92
2022/07/28 06:42:26;;;;;;;;;;;;;;;22.87;57.17;100384.16;1430548;88;21072;-91
2022/07/28 06:44:52;;;;;;;;;;;;;;;22.93;56.61;100379.69;1439774;90;20308;-91
2022/07/28 06:47:19;;;;;;;;;;;;;;;23.02;55.72;100378.86;1432527;90;20982;-91
2022/07/28 06:49:47;;;;;;;;;;;;;;;23.24;56.31;100381.33;1435858;89;20480;-89
2022/07/28 06:52:13;;;;;;;;;;;;;;;23.40;54.56;100375.25;1435699;89;20902;-92
2022/07/28 06:54:39;;;;;;;;;;;;;;;23.42;54.43;100367.75;1434769;89;20264;-91
2022/07/28 06:57:08;;;;;;;;;;;;;;;23.62;53.67;100370.61;1435375;91;20293;-87
2022/07/28 06:59:34;;;;;;;;;;;;;;;23.85;53.18;100366.61;1432251;89;20307;-83
2022/07/28 07:02:01;;;;;;;;;;;;;;;24.05;52.76;100364.88;1434894;89;20425;-85
2022/07/28 07:04:28;;;;;;;;;;;;;;;24.17;52.26;100368.91;1434603;89;20358;-85
2022/07/28 07:06:54;;;;;;;;;;;;;;;24.39;52.06;100375.00;1437307;91;21893;-85
2022/07/28 07:09:20;;;;;;;;;;;;;;;24.36;50.39;100376.84;1423824;91;20351;-85
2022/07/28 07:11:47;;;;;;;;;;;;;;;24.30;50.46;100379.43;1430980;91;20592;-87
2022/07/28 07:14:13;;;;;;;;;;;;;;;24.31;50.91;100378.39;1437023;89;20375;-87
2022/07/28 07:16:39;;;;;;;;;;;;;;;24.21;50.79;100374.64;1434850;91;20471;-86
2022/07/28 07:19:05;;;;;;;;;;;;;;;24.19;51.08;100372.16;1436919;91;20256;-87
2022/07/28 07:21:39;;;;;;;;;;;;;;;24.11;51.16;100373.91;1431042;89;20412;-87
2022/07/28 07:24:06;;;;;;;;;;;;;;;24.14;51.56;100372.08;1423135;90;21447;-87
2022/07/28 07:26:32;;;;;;;;;;;;;;;24.19;51.75;100372.16;1432918;89;20383;-87
2022/07/28 07:28:58;;;;;;;;;;;;;;;24.20;51.84;100368.42;1427962;90;20382;-87
2022/07/28 07:31:24;;;;;;;;;;;;;;;24.16;51.35;100367.23;1434100;91;20345;-92
2022/07/28 07:33:50;;;;;;;;;;;;;;;24.14;51.09;100372.08;1437473;89;20520;-90
2022/07/28 07:36:16;;;;;;;;;;;;;;;24.13;51.65;100367.72;1453172;89;20367;-90
2022/07/28 07:38:48;;;;;;;;;;;;;;;24.31;51.99;100366.22;1438581;91;20293;-91
2022/07/28 07:41:17;;;;;;;;;;;;;;;24.61;51.39;100366.55;1433750;89;20389;-91
2022/07/28 07:43:46;;;;;;;;;;;;;;;24.70;50.18;100359.67;1452855;89;20227;-91
2022/07/28 07:46:12;;;;;;;;;;;;;;;24.99;50.50;100363.70;1452558;89;20345;-90
2022/07/28 07:48:38;;;;;;;;;;;;;;;25.23;49.24;100359.52;1440556;90;20293;-91
2022/07/28 07:51:07;;;;;;;;;;;;;;;25.42;49.31;100354.14;1464791;87;20439;-90
2022/07/28 07:53:39;;;;;;;;;;;;;;;25.69;48.67;100359.69;1464828;87;20892;-91
2022/07/28 07:56:05;;;;;;;;;;;;;;;25.87;48.37;100355.92;1466463;88;20269;-92
2022/07/28 07:58:31;;;;;;;;;;;;;;;26.01;46.92;100357.70;1459058;87;20336;-91
2022/07/28 08:00:59;;;;;;;;;;;;;;;26.21;45.64;100360.70;1453596;87;20259;-92
2022/07/28 08:03:25;;;;;;;;;;;;;;;26.30;43.94;100359.17;1461822;87;21002;-92
2022/07/28 08:05:55;;;;;;;;;;;;;;;26.59;43.69;100358.17;1458000;88;20350;-92
2022/07/28 08:08:18;;;;;;;;;;;;;;;26.90;43.80;100361.47;1464947;88;20326;-86
2022/07/28 08:10:45;;;;;;;;;;;;;;;27.21;44.26;100357.67;1469287;88;20290;-86
2022/07/28 08:13:13;;;;;;;;;;;;;;;27.12;42.11;100359.20;1465834;88;20401;-87
2022/07/28 08:15:39;;;;;;;;;;;;;;;27.21;41.53;100360.39;1466976;88;20378;-87
2022/07/28 08:18:05;;;;;;;;;;;;;;;27.35;42.47;100358.05;1472800;87;20409;-85
2022/07/28 08:20:31;;;;;;;;;;;;;;;27.20;41.38;100358.76;1466976;87;20290;-86
2022/07/28 08:23:04;;;;;;;;;;;;;;;27.32;41.73;100359.39;1457852;87;21220;-86
2022/07/28 08:25:30;;;;;;;;;;;;;;;27.39;42.38;100364.59;1459898;88;20335;-86
2022/07/28 08:27:56;;;;;;;;;;;;;;;27.17;41.94;100368.79;1460189;88;20419;-82
2022/07/28 08:30:22;;;;;;;;;;;;;;;27.28;42.08;100369.70;1467263;87;20332;-82
2022/07/28 08:32:47;;;;;;;;;;;;;;;27.31;41.80;100365.91;1461742;87;20357;-84
2022/07/28 08:35:13;;;;;;;;;;;;;;;27.41;41.91;100365.97;1465499;87;20577;-83
2022/07/28 08:37:40;;;;;;;;;;;;;;;27.48;40.96;100373.08;1461933;88;20503;-85
2022/07/28 08:40:16;;;;;;;;;;;;;;;27.93;41.42;100369.05;1470692;88;20291;-85
2022/07/28 08:43:01;;;;;;;;;;;;;;;28.10;40.76;100375.11;1462050;88;20454;-85
2022/07/28 08:45:27;;;;;;;;;;;;;;;28.16;40.78;100378.67;1416748;91;20354;-85
2022/07/28 08:47:55;;;;;;;;;;;;;;;27.96;38.57;100375.31;1443539;87;20343;-85
2022/07/28 08:50:23;;;;;;;;;;;;;;;27.84;39.21;100372.81;1382222;90;20291;-85
2022/07/28 08:52:51;;;;;;;;;;;;;;;27.74;39.62;100375.45;1479576;87;20254;-85
2022/07/28 08:55:26;;;;;;;;;;;;;;;27.59;39.21;100380.23;1442593;87;20232;-85
2022/07/28 08:57:55;;;;;;;;;;;;;;;27.64;40.27;100374.83;1511757;87;20283;-85
2022/07/28 09:00:22;;;;;;;;;;;;;;;27.90;40.21;100373.11;1502486;88;20453;-84
2022/07/28 09:02:49;;;;;;;;;;;;;;;27.94;39.27;100373.39;1467707;87;20290;-85
2022/07/28 09:05:15;;;;;;;;;;;;;;;27.98;40.25;100373.16;1465213;87;20409;-84
2022/07/28 09:07:43;;;;;;;;;;;;;;;28.10;40.72;100375.11;1462290;87;20336;-84
2022/07/28 09:10:11;;;;;;;;;;;;;;;28.21;39.91;100375.98;1457921;87;20344;-85
2022/07/28 09:12:38;;;;;;;;;;;;;;;28.41;40.22;100371.16;1464406;88;20484;-85
2022/07/28 09:15:09;;;;;;;;;;;;;;;28.60;40.08;100379.14;1462182;87;20409;-85
2022/07/28 09:17:36;;;;;;;;;;;;;;;28.70;38.17;100372.34;1464880;88;20471;-85
2022/07/28 09:20:04;;;;;;;;;;;;;;;28.55;38.35;100365.52;1467311;87;20368;-85
2022/07/28 09:22:34;;;;;;;;;;;;;;;28.65;39.21;100364.70;1466851;88;20312;-85
2022/07/28 09:25:02;;;;;;;;;;;;;;;28.38;38.58;100367.61;1466618;87;20460;-85
2022/07/28 09:27:43;;;;;;;;;;;;;;;28.45;39.10;100366.83;1464563;88;20298;-86
2022/07/28 09:30:11;;;;;;;;;;;;;;;28.51;39.21;100369.84;1467458;88;20373;-85
2022/07/28 09:32:38;;;;;;;;;;;;;;;28.39;39.06;100361.89;1462258;88;20335;-85
2022/07/28 09:35:06;;;;;;;;;;;;;;;28.21;39.05;100357.75;1413520;88;20409;-85
2022/07/28 09:37:32;;;;;;;;;;;;;;;28.37;39.23;100369.52;1383027;91;20781;-86
2022/07/28 09:40:00;;;;;;;;;;;;;;;28.33;38.64;100365.68;1546258;88;20240;-83
2022/07/28 09:42:27;;;;;;;;;;;;;;;28.14;38.93;100362.63;1420867;88;20254;-84
2022/07/28 09:45:06;;;;;;;;;;;;;;;28.13;38.81;100356.89;1401785;88;20216;-86
2022/07/28 09:47:33;;;;;;;;;;;;;;;27.96;39.40;100361.72;1478047;88;20255;-86
2022/07/28 09:50:01;;;;;;;;;;;;;;;27.96;39.31;100363.89;1540414;88;20275;-86
2022/07/28 09:52:35;;;;;;;;;;;;;;;27.89;38.98;100362.78;1394577;88;20335;-86
2022/07/28 09:55:04;;;;;;;;;;;;;;;27.94;38.91;100368.80;1515315;88;20284;-86
2022/07/28 09:57:31;;;;;;;;;;;;;;;28.01;38.70;100365.83;1551269;88;20209;-86
2022/07/28 09:59:57;;;;;;;;;;;;;;;28.07;38.68;100366.94;1442337;88;20239;-86
2022/07/28 10:02:30;;;;;;;;;;;;;;;28.12;38.48;100368.87;1546627;88;20240;-86
2022/07/28 10:04:59;;;;;;;;;;;;;;;28.26;38.71;100371.38;1536594;88;20247;-85
2022/07/28 10:07:31;;;;;;;;;;;;;;;28.48;39.18;100372.55;1543604;88;20291;-86
2022/07/28 10:10:01;;;;;;;;;;;;;;;28.56;37.89;100373.95;1549023;87;20232;-86
2022/07/28 10:12:30;;;;;;;;;;;;;;;28.84;39.45;100378.64;1467236;87;20317;-85
2022/07/28 10:16:09;;;;;;;;;;;;;;;28.92;36.49;100380.84;1474543;88;20314;-86
2022/07/28 10:17:33;;;;;;;;;;;;;;;29.06;37.21;100376.52;1459146;87;20374;-85
2022/07/28 10:20:01;;;;;;;;;;;;;;;29.23;36.50;100363.44;1498646;88;20247;-86
2022/07/28 10:22:33;;;;;;;;;;;;;;;29.32;35.96;100362.34;1540280;88;20411;-86
2022/07/28 10:25:14;;;;;;;;;;;;;;;29.66;36.04;100367.21;1534941;88;20365;-86
2022/07/28 10:27:41;;;;;;;;;;;;;;;29.65;35.07;100366.95;1541761;87;20240;-86
2022/07/28 10:30:08;;;;;;;;;;;;;;;29.67;34.40;100360.13;1544327;87;20316;-83
2022/07/28 10:32:40;;;;;;;;;;;;;;;30.03;35.08;100355.11;1458192;88;20335;-83
2022/07/28 10:35:12;;;;;;;;;;;;;;;30.10;34.48;100354.27;1458767;88;20290;-84
2022/07/28 10:37:59;;;;;;;;;;;;;;;30.16;34.46;100342.23;1458290;87;20440;-83
2022/07/28 10:40:28;;;;;;;;;;;;;;;30.03;33.22;100343.64;1452777;87;20715;-83
2022/07/28 10:42:55;;;;;;;;;;;;;;;30.05;33.42;100341.45;1461334;88;20513;-82
2022/07/28 10:45:21;;;;;;;;;;;;;;;30.17;33.92;100340.31;1469279;88;20604;-83
2022/07/28 10:47:51;;;;;;;;;;;;;;;30.18;34.58;100335.12;1453624;88;20423;-83
2022/07/28 10:50:17;;;;;;;;;;;;;;;30.09;34.30;100341.70;1461891;88;20260;-82
2022/07/28 10:52:46;;;;;;;;;;;;;;;30.06;33.79;100335.45;1460270;87;20290;-83
2022/07/28 10:55:29;;;;;;;;;;;;;;;30.22;33.41;100334.88;1468145;87;20349;-83
2022/07/28 10:58:11;;;;;;;;;;;;;;;30.48;33.22;100330.89;1460961;88;20290;-83
2022/07/28 11:00:46;;;;;;;;;;;;;;;30.67;33.88;100330.22;1459461;87;20328;-83
2022/07/28 11:03:33;;;;;;;;;;;;;;;30.70;33.29;100331.85;1458920;88;20349;-82
2022/07/28 11:06:29;;;;;;;;;;;;;;;30.84;32.41;100340.23;1458410;87;21511;-82
2022/07/28 11:09:16;;;;;;;;;;;;;;;30.80;31.45;100333.72;1464017;87;20349;-82
2022/07/28 11:11:58;;;;;;;;;;;;;;;30.60;30.23;100330.55;1460431;87;20306;-86
2022/07/28 11:14:30;;;;;;;;;;;;;;;30.88;31.05;100329.02;1460212;88;20364;-86
2022/07/28 11:17:06;;;;;;;;;;;;;;;31.11;31.65;100322.55;1456133;88;20422;-86
2022/07/28 11:19:50;;;;;;;;;;;;;;;31.27;31.36;100324.02;1465180;88;21018;-86
2022/07/28 11:22:32;;;;;;;;;;;;;;;31.42;30.94;100328.02;1461684;87;20975;-86
2022/07/28 11:25:01;;;;;;;;;;;;;;;31.58;31.61;100325.11;1463018;88;20373;-86
2022/07/28 11:27:44;;;;;;;;;;;;;;;31.83;31.68;100318.54;1459267;88;20283;-86
2022/07/28 11:30:19;;;;;;;;;;;;;;;31.87;31.02;100327.22;1456867;88;20357;-86
2022/07/28 11:32:55;;;;;;;;;;;;;;;31.85;30.16;100326.72;1469660;88;20342;-86
2022/07/28 11:35:29;;;;;;;;;;;;;;;32.01;31.46;100322.45;1464980;88;20289;-86
2022/07/28 11:38:06;;;;;;;;;;;;;;;32.17;30.99;100316.20;1463687;87;20349;-86
2022/07/28 11:40:34;;;;;;;;;;;;;;;31.99;30.22;100323.28;1467636;87;20380;-85
2022/07/28 11:43:29;;;;;;;;;;;;;;;32.06;30.11;100322.39;1454884;87;20530;-81
2022/07/28 11:46:05;;;;;;;;;;;;;;;32.02;30.10;100319.95;1465840;88;20320;-81
2022/07/28 11:48:32;;;;;;;;;;;;;;;32.04;30.10;100321.30;1469226;87;20379;-81
2022/07/28 11:51:09;;;;;;;;;;;;;;;32.17;30.06;100310.20;1463447;87;21227;-81
2022/07/28 11:53:44;;;;;;;;;;;;;;;32.06;29.43;100319.65;1461782;88;20401;-81
2022/07/28 11:56:15;;;;;;;;;;;;;;;32.16;29.78;100316.77;1460541;87;20359;-82
2022/07/28 11:58:42;;;;;;;;;;;;;;;32.10;28.09;100304.26;1465671;87;21637;-82
2022/07/28 12:01:18;;;;;;;;;;;;;;;32.15;29.13;100306.93;1473667;87;20335;-82
2022/07/28 12:03:48;;;;;;;;;;;;;;;32.06;27.52;100308.70;1461462;88;20349;-81
2022/07/28 12:06:15;;;;;;;;;;;;;;;31.82;28.23;100306.78;1545384;88;20341;-81
2022/07/28 12:09:01;;;;;;;;;;;;;;;31.93;27.92;100308.04;1524444;88;20893;-81
2022/07/28 12:11:37;;;;;;;;;;;;;;;31.96;27.28;100307.45;1385442;90;20336;-82
2022/07/28 12:14:09;;;;;;;;;;;;;;;32.16;27.75;100305.00;1399739;88;20401;-82
2022/07/28 12:16:38;;;;;;;;;;;;;;;31.94;27.60;100298.19;1508071;88;20224;-82
2022/07/28 12:19:06;;;;;;;;;;;;;;;31.97;27.36;100298.96;1483719;88;20292;-82
2022/07/28 12:21:53;;;;;;;;;;;;;;;32.17;29.07;100293.77;1462712;88;20246;-81
2022/07/28 12:24:28;;;;;;;;;;;;;;;32.26;28.21;100292.55;1545269;88;20232;-82
2022/07/28 12:26:56;;;;;;;;;;;;;;;32.06;27.99;100290.91;1461643;87;20379;-82
2022/07/28 12:29:30;;;;;;;;;;;;;;;32.07;27.23;100287.86;1493748;87;20291;-82
2022/07/28 12:31:54;;;;;;;;;;;;;;;31.89;28.08;100281.80;1551608;88;20270;-89
2022/07/28 12:34:21;;;;;;;;;;;;;;;32.06;28.35;100284.87;1524711;88;20232;-89
2022/07/28 12:36:55;;;;;;;;;;;;;;;32.12;26.76;100294.64;1520957;88;20344;-89
2022/07/28 12:39:24;;;;;;;;;;;;;;;32.36;27.13;100289.09;1462956;88;20291;-89
2022/07/28 12:42:07;;;;;;;;;;;;;;;32.61;27.36;100283.01;1465740;88;20275;-89
2022/07/28 12:44:36;;;;;;;;;;;;;;;32.77;27.07;100291.25;1462116;87;20605;-89
2022/07/28 12:47:05;;;;;;;;;;;;;;;32.92;26.76;100285.25;1461572;88;20343;-89
2022/07/28 12:49:32;;;;;;;;;;;;;;;32.86;26.45;100285.89;1460464;87;20380;-89